Аэропорт: Нариманово. Астрахань

ICAO: URWA

METAR:
2021-07-28 14:00:00
URWA 281400Z 25005MPS CAVOK 32/09 Q1013 R27/010070 NOSIG RMK QFE761/1015
METAR:
2021-07-28 11:00:00
TAF URWA 281100Z 2812/2821 36003G09MPS 9999 SCT030 TEMPO 2812/2817 08003G10MPS